Scawby, United Kingdom
Current Conditions -  °F | °C
As of 7:20 PM on Thursday 18 Dec 2014 (Local Time) from EGNJ Reporting Station
Light Rain Light Rain  
Wind Chill: 57°   Ceiling: 3000
Heat Index: 57°   Visibility: 6mi
Dew Point: 52°   Wind: 25mph
Humidity: 82%   Direction: 230°SW
Pressure: 29.59"   Gusts: NA
Location:  53.54°N, 0.54°W
Report Text: EGNJ 181920Z 23022KT 9999 -RA BKN030 14/11 Q1002
Loading
Personal Weather Stations






























Interactive Weather Map New forecast layout! Learn more

10-Day Weather Forecast

Advertisements
Track Severe Weather on mobile